Time,TemperatureF,DewpointF,PressureIn,WindDirection,WindDirectionDegrees,WindSpeedMPH,WindSpeedGustMPH,Humidity,HourlyPrecipIn,Conditions,Clouds,dailyrainin,SoftwareType,DateUTC
2013-05-17 00:07:00,60.8,60.2,29.93,WNW,292,0.0,-999.0,98,-99.99,,,0.00,Acu-Link.com,2013-05-17 04:07:00,
2013-05-17 00:23:00,60.3,59.7,29.92,WNW,292,0.0,-999.0,98,-99.99,,,0.00,Acu-Link.com,2013-05-17 04:23:00,
2013-05-17 00:38:00,59.9,59.3,29.93,WNW,292,0.0,-999.0,98,-99.99,,,0.00,Acu-Link.com,2013-05-17 04:38:00,
2013-05-17 00:53:00,59.5,58.9,29.93,WNW,292,0.0,-999.0,98,-99.99,,,0.00,Acu-Link.com,2013-05-17 04:53:00,
2013-05-17 01:08:00,59.2,58.6,29.93,WNW,292,0.0,-999.0,98,-99.99,,,0.00,Acu-Link.com,2013-05-17 05:08:00,
2013-05-17 01:23:00,59.0,58.4,29.92,WNW,292,0.0,-999.0,98,-99.99,,,0.00,Acu-Link.com,2013-05-17 05:23:00,
2013-05-17 01:38:00,58.5,57.9,29.92,WNW,292,0.0,-999.0,98,-99.99,,,0.00,Acu-Link.com,2013-05-17 05:38:00,
2013-05-17 01:54:00,58.3,57.7,29.92,WNW,292,0.0,-999.0,98,-99.99,,,0.00,Acu-Link.com,2013-05-17 05:54:00,
2013-05-17 02:09:00,58.1,57.5,29.91,WNW,292,0.0,-999.0,98,-99.99,,,0.00,Acu-Link.com,2013-05-17 06:09:00,
2013-05-17 02:24:00,57.7,57.1,29.92,West,270,0.0,-999.0,98,-99.99,,,0.00,Acu-Link.com,2013-05-17 06:24:00,
2013-05-17 02:39:00,57.4,56.8,29.92,West,270,0.0,-999.0,98,-99.99,,,0.00,Acu-Link.com,2013-05-17 06:39:00,
2013-05-17 02:54:00,57.2,56.6,29.91,West,270,0.0,-999.0,98,-99.99,,,0.00,Acu-Link.com,2013-05-17 06:54:00,
2013-05-17 03:09:00,57.0,56.4,29.91,SW,225,0.0,-999.0,98,-99.99,,,0.00,Acu-Link.com,2013-05-17 07:09:00,
2013-05-17 03:24:00,56.7,56.1,29.92,WNW,292,0.0,-999.0,98,-99.99,,,0.00,Acu-Link.com,2013-05-17 07:24:00,
2013-05-17 03:39:00,56.3,55.7,29.92,SW,225,0.0,-999.0,98,-99.99,,,0.00,Acu-Link.com,2013-05-17 07:39:00,
2013-05-17 03:55:00,55.9,55.3,29.92,NNW,337,0.0,-999.0,98,-99.99,,,0.00,Acu-Link.com,2013-05-17 07:55:00,
2013-05-17 04:10:00,55.9,55.3,29.92,WNW,292,0.0,-999.0,98,-99.99,,,0.00,Acu-Link.com,2013-05-17 08:10:00,
2013-05-17 04:25:00,55.6,55.0,29.93,West,270,0.0,-999.0,98,-99.99,,,0.00,Acu-Link.com,2013-05-17 08:25:00,
2013-05-17 04:40:00,55.6,55.0,29.92,West,270,0.0,-999.0,98,-99.99,,,0.00,Acu-Link.com,2013-05-17 08:40:00,
2013-05-17 04:55:00,55.4,54.8,29.92,SW,225,0.0,-999.0,98,-99.99,,,0.00,Acu-Link.com,2013-05-17 08:55:00,
2013-05-17 05:10:00,55.0,54.4,29.93,West,270,0.0,-999.0,98,-99.99,,,0.00,Acu-Link.com,2013-05-17 09:10:00,
2013-05-17 05:25:00,55.0,54.4,29.93,South,180,0.0,-999.0,98,-99.99,,,0.00,Acu-Link.com,2013-05-17 09:25:00,
2013-05-17 05:41:00,55.0,54.4,29.94,SW,225,0.0,-999.0,98,-99.99,,,0.00,Acu-Link.com,2013-05-17 09:41:00,
2013-05-17 05:56:00,55.0,54.4,29.94,SW,225,0.0,-999.0,98,-99.99,,,0.00,Acu-Link.com,2013-05-17 09:56:00,
2013-05-17 06:11:00,55.2,54.6,29.95,SW,225,0.0,-999.0,98,-99.99,,,0.00,Acu-Link.com,2013-05-17 10:11:00,
2013-05-17 06:26:00,55.6,55.0,29.95,SW,225,0.0,-999.0,98,-99.99,,,0.00,Acu-Link.com,2013-05-17 10:26:00,
2013-05-17 06:41:00,55.6,55.0,29.96,West,270,0.0,-999.0,98,-99.99,,,0.00,Acu-Link.com,2013-05-17 10:41:00,
2013-05-17 06:56:00,55.8,55.2,29.96,ENE,67,0.0,-999.0,98,-99.99,,,0.00,Acu-Link.com,2013-05-17 10:56:00,
2013-05-17 07:11:00,55.9,55.3,29.97,WSW,247,0.0,-999.0,98,-99.99,,,0.00,Acu-Link.com,2013-05-17 11:11:00,
2013-05-17 07:27:00,57.7,57.1,29.97,East,90,0.0,-999.0,98,-99.99,,,0.00,Acu-Link.com,2013-05-17 11:27:00,
2013-05-17 07:42:00,62.2,61.6,29.98,ESE,112,0.0,-999.0,98,-99.99,,,0.00,Acu-Link.com,2013-05-17 11:42:00,
2013-05-17 07:57:00,64.9,64.3,29.98,SSE,157,0.0,-999.0,98,-99.99,,,0.00,Acu-Link.com,2013-05-17 11:57:00,
2013-05-17 08:12:00,69.3,68.4,29.98,SE,135,0.0,-999.0,97,-99.99,,,0.00,Acu-Link.com,2013-05-17 12:12:00,
2013-05-17 08:27:00,69.8,66.7,29.98,SE,135,0.0,-999.0,90,-99.99,,,0.00,Acu-Link.com,2013-05-17 12:27:00,
2013-05-17 08:42:00,70.5,67.1,29.99,ESE,112,0.0,-999.0,89,-99.99,,,0.00,Acu-Link.com,2013-05-17 12:42:00,
2013-05-17 08:57:00,74.1,69.3,29.99,North,0,0.0,-999.0,85,-99.99,,,0.00,Acu-Link.com,2013-05-17 12:57:00,
2013-05-17 09:12:00,77.9,70.8,29.98,West,270,0.0,-999.0,79,-99.99,,,0.00,Acu-Link.com,2013-05-17 13:12:00,
2013-05-17 09:27:00,79.9,69.6,29.99,ENE,67,0.0,-999.0,71,-99.99,,,0.00,Acu-Link.com,2013-05-17 13:27:00,
2013-05-17 09:43:00,79.3,69.5,29.99,West,270,0.0,-999.0,72,-99.99,,,0.00,Acu-Link.com,2013-05-17 13:43:00,
2013-05-17 09:58:00,84.2,71.1,29.99,NW,315,1.1,-999.0,65,-99.99,,,0.00,Acu-Link.com,2013-05-17 13:58:00,
2013-05-17 10:13:00,86.0,70.5,29.99,WNW,292,0.0,-999.0,60,-99.99,,,0.00,Acu-Link.com,2013-05-17 14:13:00,
2013-05-17 10:28:00,79.0,67.5,29.99,NNE,22,2.7,-999.0,68,-99.99,,,0.00,Acu-Link.com,2013-05-17 14:28:00,
2013-05-17 10:43:00,81.0,69.0,30.00,WSW,247,1.7,-999.0,67,-99.99,,,0.00,Acu-Link.com,2013-05-17 14:43:00,
2013-05-17 10:58:00,81.9,69.4,30.00,NNE,22,0.0,-999.0,66,-99.99,,,0.00,Acu-Link.com,2013-05-17 14:58:00,
2013-05-17 11:13:00,81.1,69.5,29.99,West,270,0.0,-999.0,68,-99.99,,,0.00,Acu-Link.com,2013-05-17 15:13:00,
2013-05-17 11:28:00,83.1,69.2,29.99,ENE,67,3.2,-999.0,63,-99.99,,,0.00,Acu-Link.com,2013-05-17 15:28:00,
2013-05-17 11:43:00,83.5,67.1,29.99,ESE,112,3.7,-999.0,58,-99.99,,,0.00,Acu-Link.com,2013-05-17 15:43:00,
2013-05-17 11:59:00,79.7,64.6,29.99,WNW,292,0.0,-999.0,60,-99.99,,,0.00,Acu-Link.com,2013-05-17 15:59:00,
2013-05-17 12:14:00,84.9,67.4,29.98,NNE,22,2.7,-999.0,56,-99.99,,,0.00,Acu-Link.com,2013-05-17 16:14:00,
2013-05-17 12:29:00,84.4,67.0,29.97,SW,225,0.0,-999.0,56,-99.99,,,0.00,Acu-Link.com,2013-05-17 16:29:00,
2013-05-17 12:44:00,85.6,67.0,29.97,NW,315,0.0,-999.0,54,-99.99,,,0.00,Acu-Link.com,2013-05-17 16:44:00,
2013-05-17 12:59:00,86.0,68.4,29.97,WNW,292,2.2,-999.0,56,-99.99,,,0.00,Acu-Link.com,2013-05-17 16:59:00,
2013-05-17 13:14:00,86.0,65.7,29.96,ESE,112,3.7,-999.0,51,-99.99,,,0.00,Acu-Link.com,2013-05-17 17:14:00,
2013-05-17 13:29:00,84.2,65.2,29.96,West,270,1.1,-999.0,53,-99.99,,,0.00,Acu-Link.com,2013-05-17 17:29:00,
2013-05-17 13:44:00,82.6,66.8,29.97,WNW,292,1.7,-999.0,59,-99.99,,,0.00,Acu-Link.com,2013-05-17 17:44:00,
2013-05-17 13:59:00,83.5,66.1,29.96,NE,45,3.7,-999.0,56,-99.99,,,0.00,Acu-Link.com,2013-05-17 17:59:00,
2013-05-17 14:14:00,81.5,64.3,29.95,South,180,0.0,-999.0,56,-99.99,,,0.00,Acu-Link.com,2013-05-17 18:14:00,
2013-05-17 14:30:00,82.8,67.5,29.95,SW,225,2.7,-999.0,60,-99.99,,,0.00,Acu-Link.com,2013-05-17 18:30:00,
2013-05-17 14:45:00,84.2,67.3,29.95,WSW,247,1.7,-999.0,57,-99.99,,,0.00,Acu-Link.com,2013-05-17 18:45:00,
2013-05-17 15:00:00,82.2,66.9,29.94,West,270,0.0,-999.0,60,-99.99,,,0.00,Acu-Link.com,2013-05-17 19:00:00,
2013-05-17 15:15:00,82.0,65.2,29.94,WNW,292,0.0,-999.0,57,-99.99,,,0.00,Acu-Link.com,2013-05-17 19:15:00,
2013-05-17 15:30:00,84.9,66.9,29.93,ESE,112,2.2,-999.0,55,-99.99,,,0.00,Acu-Link.com,2013-05-17 19:30:00,
2013-05-17 15:45:00,85.5,68.0,29.93,ESE,112,3.2,-999.0,56,-99.99,,,0.00,Acu-Link.com,2013-05-17 19:45:00,
2013-05-17 16:00:00,87.8,67.9,29.93,North,0,2.2,-999.0,52,-99.99,,,0.00,Acu-Link.com,2013-05-17 20:00:00,
2013-05-17 16:15:00,82.0,65.7,29.93,South,180,0.0,-999.0,58,-99.99,,,0.00,Acu-Link.com,2013-05-17 20:15:00,
2013-05-17 16:30:00,86.0,68.4,29.93,WSW,247,0.0,-999.0,56,-99.99,,,0.00,Acu-Link.com,2013-05-17 20:30:00,
2013-05-17 16:46:00,81.3,67.9,29.93,SW,225,0.0,-999.0,64,-99.99,,,0.00,Acu-Link.com,2013-05-17 20:46:00,
2013-05-17 17:01:00,81.3,67.5,29.93,ENE,67,2.2,-999.0,63,-99.99,,,0.00,Acu-Link.com,2013-05-17 21:01:00,
2013-05-17 17:16:00,82.6,67.3,29.93,East,90,1.7,-999.0,60,-99.99,,,0.00,Acu-Link.com,2013-05-17 21:16:00,
2013-05-17 17:31:00,82.0,66.7,29.92,West,270,2.2,-999.0,60,-99.99,,,0.00,Acu-Link.com,2013-05-17 21:31:00,
2013-05-17 17:46:00,82.6,66.3,29.93,NW,315,1.7,-999.0,58,-99.99,,,0.00,Acu-Link.com,2013-05-17 21:46:00,
2013-05-17 18:01:00,82.4,64.6,29.94,West,270,0.0,-999.0,55,-99.99,,,0.00,Acu-Link.com,2013-05-17 22:01:00,
2013-05-17 18:16:00,80.4,64.2,29.93,East,90,2.7,-999.0,58,-99.99,,,0.00,Acu-Link.com,2013-05-17 22:16:00,
2013-05-17 18:31:00,78.8,64.2,29.93,ESE,112,0.0,-999.0,61,-99.99,,,0.00,Acu-Link.com,2013-05-17 22:31:00,
2013-05-17 18:46:00,77.9,64.3,29.93,North,0,0.0,-999.0,63,-99.99,,,0.00,Acu-Link.com,2013-05-17 22:46:00,
2013-05-17 19:02:00,77.4,64.2,29.93,WSW,247,0.0,-999.0,64,-99.99,,,0.00,Acu-Link.com,2013-05-17 23:02:00,
2013-05-17 19:17:00,77.5,64.8,29.93,NE,45,0.0,-999.0,65,-99.99,,,0.00,Acu-Link.com,2013-05-17 23:17:00,
2013-05-17 19:32:00,77.4,64.7,29.93,West,270,0.0,-999.0,65,-99.99,,,0.00,Acu-Link.com,2013-05-17 23:32:00,
2013-05-17 19:47:00,76.1,64.8,29.93,WNW,292,0.0,-999.0,68,-99.99,,,0.00,Acu-Link.com,2013-05-17 23:47:00,
2013-05-17 20:02:00,74.7,64.7,29.94,WNW,292,0.0,-999.0,71,-99.99,,,0.00,Acu-Link.com,2013-05-18 00:02:00,
2013-05-17 20:17:00,72.7,65.1,29.94,NW,315,0.0,-999.0,77,-99.99,,,0.00,Acu-Link.com,2013-05-18 00:17:00,
2013-05-17 20:33:00,70.9,64.4,29.94,NNW,337,0.0,-999.0,80,-99.99,,,0.00,Acu-Link.com,2013-05-18 00:33:00,
2013-05-17 20:48:00,69.4,63.3,29.95,NE,45,0.0,-999.0,81,-99.99,,,0.00,Acu-Link.com,2013-05-18 00:48:00,
2013-05-17 21:03:00,68.2,63.2,29.95,ENE,67,0.0,-999.0,84,-99.99,,,0.00,Acu-Link.com,2013-05-18 01:03:00,
2013-05-17 21:18:00,66.9,62.6,29.95,ENE,67,0.0,-999.0,86,-99.99,,,0.00,Acu-Link.com,2013-05-18 01:18:00,
2013-05-17 21:33:00,66.2,62.9,29.95,NE,45,0.0,-999.0,89,-99.99,,,0.00,Acu-Link.com,2013-05-18 01:33:00,
2013-05-17 21:48:00,65.3,62.3,29.96,NE,45,0.0,-999.0,90,-99.99,,,0.00,Acu-Link.com,2013-05-18 01:48:00,
2013-05-17 22:03:00,64.6,62.2,29.96,NE,45,0.0,-999.0,92,-99.99,,,0.00,Acu-Link.com,2013-05-18 02:03:00,
2013-05-17 22:18:00,63.9,61.8,29.96,NE,45,0.0,-999.0,93,-99.99,,,0.00,Acu-Link.com,2013-05-18 02:18:00,
2013-05-17 22:33:00,63.5,61.7,29.97,ENE,67,0.0,-999.0,94,-99.99,,,0.00,Acu-Link.com,2013-05-18 02:33:00,
2013-05-17 22:48:00,63.1,61.6,29.97,ENE,67,0.0,-999.0,95,-99.99,,,0.00,Acu-Link.com,2013-05-18 02:48:00,
2013-05-17 23:04:00,62.8,61.6,29.98,ENE,67,0.0,-999.0,96,-99.99,,,0.00,Acu-Link.com,2013-05-18 03:04:00,
2013-05-17 23:19:00,62.4,61.2,29.98,ENE,67,0.0,-999.0,96,-99.99,,,0.00,Acu-Link.com,2013-05-18 03:19:00,
2013-05-17 23:34:00,61.9,61.0,29.98,NE,45,0.0,-999.0,97,-99.99,,,0.00,Acu-Link.com,2013-05-18 03:34:00,
2013-05-17 23:49:00,61.7,60.8,29.99,ENE,67,0.0,-999.0,97,-99.99,,,0.00,Acu-Link.com,2013-05-18 03:49:00,